G259B EGLC-EGCC
Flight info
| Callsign | G259B |
|---|---|
| Flight time | N/A |
| Altitude | 4000 |
| Route | BPK DCT WELIN T420 ELVOS |
| Aircraft | C152/L-SFG/C |
Departure
| Time | 2026-05-05 12:18 |
|---|---|
| Airport | London City Airport (EGLC) |
Arrival
| Time | N/A |
|---|---|
| Airport | Manchester Airport (EGCC) |
| Time | Latitude | Longitude | Altitude | Speed | Heading |
|---|---|---|---|---|---|
| 2026-05-05 12:03 | 51.50520 | 0.04019 | 19 ft | 0 kts | 270° |
| 2026-05-05 12:14 | 51.50532 | 0.04033 | 19 ft | 6 kts | 109° |
| 2026-05-05 12:14 | 51.50518 | 0.04118 | 18 ft | 9 kts | 96° |
| 2026-05-05 12:15 | 51.50509 | 0.04221 | 18 ft | 9 kts | 108° |
| 2026-05-05 12:15 | 51.50497 | 0.04324 | 19 ft | 9 kts | 93° |
| 2026-05-05 12:15 | 51.50490 | 0.04425 | 19 ft | 9 kts | 76° |
| 2026-05-05 12:15 | 51.50494 | 0.04441 | 19 ft | 0 kts | 41° |
| 2026-05-05 12:16 | 51.50537 | 0.04444 | 20 ft | 9 kts | 5° |
| 2026-05-05 12:16 | 51.50556 | 0.04496 | 22 ft | 0 kts | 88° |
| 2026-05-05 12:16 | 51.50555 | 0.04623 | 23 ft | 35 kts | 92° |
| 2026-05-05 12:16 | 51.50533 | 0.05270 | 26 ft | 76 kts | 94° |
| 2026-05-05 12:17 | 51.50499 | 0.06157 | 146 ft | 83 kts | 92° |
| 2026-05-05 12:17 | 51.50461 | 0.07059 | 367 ft | 80 kts | 92° |
| 2026-05-05 12:17 | 51.50422 | 0.07976 | 533 ft | 84 kts | 90° |
| 2026-05-05 12:17 | 51.50355 | 0.08963 | 606 ft | 92 kts | 88° |
| 2026-05-05 12:18 | 51.50605 | 0.09892 | 654 ft | 100 kts | 43° |
| 2026-05-05 12:18 | 51.51219 | 0.10482 | 614 ft | 102 kts | 28° |
| 2026-05-05 12:18 | 51.51840 | 0.10960 | 670 ft | 97 kts | 26° |
| 2026-05-05 12:18 | 51.52455 | 0.11354 | 734 ft | 94 kts | 16° |
| 2026-05-05 12:19 | 51.53101 | 0.11379 | 772 ft | 96 kts | 349° |
| 2026-05-05 12:19 | 51.53657 | 0.10868 | 875 ft | 93 kts | 328° |
| 2026-05-05 12:19 | 51.54174 | 0.10149 | 812 ft | 102 kts | 323° |
| 2026-05-05 12:19 | 51.54706 | 0.09358 | 745 ft | 105 kts | 323° |
| 2026-05-05 12:20 | 51.55243 | 0.08562 | 753 ft | 104 kts | 324° |
| 2026-05-05 12:20 | 51.55763 | 0.07755 | 800 ft | 104 kts | 323° |
| 2026-05-05 12:20 | 51.56280 | 0.06942 | 857 ft | 103 kts | 325° |
| 2026-05-05 12:20 | 51.56797 | 0.06137 | 889 ft | 104 kts | 323° |
| 2026-05-05 12:21 | 51.57309 | 0.05327 | 947 ft | 103 kts | 320° |
| 2026-05-05 12:21 | 51.57827 | 0.04530 | 1009 ft | 103 kts | 321° |
| 2026-05-05 12:21 | 51.58349 | 0.03755 | 1024 ft | 102 kts | 324° |
| 2026-05-05 12:21 | 51.58872 | 0.02975 | 1069 ft | 102 kts | 321° |
| 2026-05-05 12:22 | 51.59383 | 0.02189 | 1070 ft | 102 kts | 323° |
| 2026-05-05 12:22 | 51.59900 | 0.01404 | 1045 ft | 102 kts | 322° |
| 2026-05-05 12:22 | 51.60412 | 0.00617 | 1003 ft | 102 kts | 323° |
| 2026-05-05 12:22 | 51.60928 | -0.00168 | 951 ft | 103 kts | 324° |
| 2026-05-05 12:23 | 51.61280 | -0.00701 | 979 ft | 102 kts | 323° |
| 2026-05-05 12:23 | 51.61965 | -0.01732 | 965 ft | 103 kts | 322° |
| 2026-05-05 12:23 | 51.62329 | -0.02254 | 917 ft | 103 kts | 323° |
| 2026-05-05 12:23 | 51.62866 | -0.03024 | 871 ft | 104 kts | 323° |
| 2026-05-05 12:24 | 51.63408 | -0.03793 | 918 ft | 103 kts | 323° |
| 2026-05-05 12:24 | 51.63947 | -0.04562 | 883 ft | 103 kts | 323° |
| 2026-05-05 12:24 | 51.64473 | -0.05318 | 848 ft | 102 kts | 324° |
| 2026-05-05 12:24 | 51.65002 | -0.06105 | 862 ft | 102 kts | 324° |
| 2026-05-05 12:25 | 51.65530 | -0.06882 | 914 ft | 104 kts | 324° |
| 2026-05-05 12:25 | 51.66067 | -0.07669 | 875 ft | 103 kts | 323° |
| 2026-05-05 12:25 | 51.66589 | -0.08466 | 817 ft | 103 kts | 322° |
| 2026-05-05 12:25 | 51.67115 | -0.09247 | 752 ft | 103 kts | 325° |
| 2026-05-05 12:26 | 51.67635 | -0.10026 | 767 ft | 100 kts | 322° |
| 2026-05-05 12:26 | 51.68028 | -0.10910 | 864 ft | 97 kts | 302° |
| 2026-05-05 12:26 | 51.68134 | -0.12028 | 873 ft | 106 kts | 277° |
| 2026-05-05 12:26 | 51.68144 | -0.13236 | 921 ft | 109 kts | 276° |
| 2026-05-05 12:27 | 51.68145 | -0.14446 | 986 ft | 106 kts | 274° |
| 2026-05-05 12:27 | 51.68104 | -0.15646 | 1068 ft | 110 kts | 270° |
| 2026-05-05 12:27 | 51.68046 | -0.16874 | 1160 ft | 110 kts | 272° |
| 2026-05-05 12:27 | 51.68002 | -0.18103 | 1286 ft | 110 kts | 266° |
| 2026-05-05 12:28 | 51.67935 | -0.19339 | 1317 ft | 111 kts | 270° |
| 2026-05-05 12:28 | 51.67883 | -0.20563 | 1321 ft | 110 kts | 271° |
| 2026-05-05 12:28 | 51.67829 | -0.21810 | 1285 ft | 110 kts | 272° |
| 2026-05-05 12:28 | 51.67916 | -0.22982 | 1410 ft | 99 kts | 308° |
| 2026-05-05 12:29 | 51.68465 | -0.23466 | 1504 ft | 95 kts | 1° |
| 2026-05-05 12:29 | 51.69150 | -0.23309 | 1471 ft | 102 kts | 13° |
| 2026-05-05 12:29 | 51.69838 | -0.23098 | 1432 ft | 98 kts | 12° |
| 2026-05-05 12:29 | 51.70508 | -0.22893 | 1511 ft | 98 kts | 12° |
| 2026-05-05 12:30 | 51.71191 | -0.22694 | 1547 ft | 102 kts | 11° |
| 2026-05-05 12:30 | 51.71906 | -0.22477 | 1566 ft | 105 kts | 13° |
| 2026-05-05 12:30 | 51.72595 | -0.22281 | 1666 ft | 97 kts | 12° |
| 2026-05-05 12:30 | 51.73255 | -0.22092 | 1797 ft | 96 kts | 13° |
| 2026-05-05 12:31 | 51.73917 | -0.21879 | 1882 ft | 100 kts | 13° |
| 2026-05-05 12:31 | 51.74620 | -0.21641 | 1805 ft | 103 kts | 13° |
| 2026-05-05 12:31 | 51.75308 | -0.21428 | 1831 ft | 98 kts | 13° |
| 2026-05-05 12:31 | 51.75973 | -0.21238 | 1921 ft | 97 kts | 13° |
| 2026-05-05 12:32 | 51.76639 | -0.21073 | 1918 ft | 97 kts | 11° |
| 2026-05-05 12:32 | 51.77303 | -0.20892 | 1881 ft | 99 kts | 14° |
| 2026-05-05 12:32 | 51.78008 | -0.20699 | 1825 ft | 103 kts | 12° |
| 2026-05-05 12:32 | 51.78738 | -0.20475 | 1718 ft | 107 kts | 12° |
| 2026-05-05 12:33 | 51.79442 | -0.20270 | 1739 ft | 99 kts | 13° |
| 2026-05-05 12:33 | 51.80124 | -0.20085 | 1840 ft | 95 kts | 11° |
| 2026-05-05 12:33 | 51.80756 | -0.19883 | 1900 ft | 98 kts | 12° |
| 2026-05-05 12:33 | 51.81454 | -0.19692 | 1772 ft | 103 kts | 11° |
| 2026-05-05 12:34 | 51.82148 | -0.19488 | 1715 ft | 99 kts | 12° |
| 2026-05-05 12:34 | 51.82811 | -0.19289 | 1789 ft | 94 kts | 13° |
| 2026-05-05 12:34 | 51.83475 | -0.19214 | 1781 ft | 102 kts | 349° |
| 2026-05-05 12:34 | 51.83998 | -0.20063 | 1658 ft | 116 kts | 297° |
| 2026-05-05 12:35 | 51.84201 | -0.21266 | 1679 ft | 109 kts | 285° |
| 2026-05-05 12:35 | 51.84344 | -0.22472 | 1701 ft | 107 kts | 289° |
| 2026-05-05 12:35 | 51.84554 | -0.23641 | 1735 ft | 105 kts | 292° |
| 2026-05-05 12:35 | 51.84758 | -0.24676 | 1819 ft | 98 kts | 293° |
| 2026-05-05 12:36 | 51.84975 | -0.25755 | 1779 ft | 103 kts | 292° |
| 2026-05-05 12:36 | 51.85182 | -0.26864 | 1831 ft | 105 kts | 292° |
| 2026-05-05 12:36 | 51.85396 | -0.27999 | 1864 ft | 106 kts | 295° |
| 2026-05-05 12:36 | 51.85660 | -0.29165 | 1833 ft | 114 kts | 294° |
| 2026-05-05 12:37 | 51.85904 | -0.30393 | 1849 ft | 112 kts | 293° |
| 2026-05-05 12:37 | 51.86144 | -0.31627 | 1758 ft | 116 kts | 290° |
| 2026-05-05 12:37 | 51.86374 | -0.32826 | 1846 ft | 109 kts | 291° |
| 2026-05-05 12:37 | 51.86620 | -0.34011 | 1863 ft | 111 kts | 294° |
| 2026-05-05 12:38 | 51.86863 | -0.35143 | 1964 ft | 102 kts | 299° |
| 2026-05-05 12:38 | 51.87123 | -0.36187 | 2007 ft | 109 kts | 296° |
| 2026-05-05 12:38 | 51.87457 | -0.37352 | 1932 ft | 110 kts | 305° |
| 2026-05-05 12:38 | 51.87863 | -0.38296 | 2048 ft | 99 kts | 315° |
| 2026-05-05 12:39 | 51.88250 | -0.39231 | 2092 ft | 100 kts | 307° |
| 2026-05-05 12:39 | 51.88602 | -0.40243 | 1924 ft | 113 kts | 303° |
| 2026-05-05 12:39 | 51.88991 | -0.41322 | 1774 ft | 112 kts | 309° |
| 2026-05-05 12:39 | 51.89416 | -0.42329 | 1724 ft | 104 kts | 308° |
| 2026-05-05 12:40 | 51.89809 | -0.43289 | 1740 ft | 103 kts | 310° |
| 2026-05-05 12:40 | 51.90206 | -0.44275 | 1671 ft | 107 kts | 309° |
| 2026-05-05 12:40 | 51.90613 | -0.45293 | 1577 ft | 108 kts | 308° |
| 2026-05-05 12:40 | 51.91020 | -0.46294 | 1496 ft | 105 kts | 310° |
| 2026-05-05 12:41 | 51.91425 | -0.47272 | 1439 ft | 104 kts | 309° |
| 2026-05-05 12:41 | 51.91817 | -0.48232 | 1407 ft | 104 kts | 308° |
| 2026-05-05 12:41 | 51.92217 | -0.49218 | 1380 ft | 103 kts | 308° |
| 2026-05-05 12:41 | 51.92612 | -0.50194 | 1411 ft | 104 kts | 308° |
| 2026-05-05 12:42 | 51.92982 | -0.51194 | 1380 ft | 106 kts | 303° |
| 2026-05-05 12:42 | 51.93378 | -0.52216 | 1358 ft | 104 kts | 308° |
| 2026-05-05 12:42 | 51.93775 | -0.53162 | 1334 ft | 100 kts | 309° |
| 2026-05-05 12:42 | 51.94179 | -0.54112 | 1291 ft | 105 kts | 308° |
| 2026-05-05 12:43 | 51.94600 | -0.55100 | 1294 ft | 106 kts | 309° |
| 2026-05-05 12:43 | 51.95008 | -0.56084 | 1298 ft | 105 kts | 310° |
| 2026-05-05 12:43 | 51.95408 | -0.57092 | 1288 ft | 107 kts | 307° |
| 2026-05-05 12:43 | 51.95817 | -0.58071 | 1359 ft | 99 kts | 309° |
| 2026-05-05 12:44 | 51.96195 | -0.59017 | 1396 ft | 105 kts | 307° |
| 2026-05-05 12:44 | 51.96616 | -0.60011 | 1380 ft | 106 kts | 309° |
| 2026-05-05 12:44 | 51.97031 | -0.60991 | 1455 ft | 104 kts | 307° |
| 2026-05-05 12:44 | 51.97435 | -0.61969 | 1471 ft | 105 kts | 307° |
| 2026-05-05 12:45 | 51.97860 | -0.62940 | 1478 ft | 106 kts | 309° |
| 2026-05-05 12:45 | 51.98280 | -0.63911 | 1502 ft | 103 kts | 310° |
| 2026-05-05 12:45 | 51.98685 | -0.64870 | 1415 ft | 104 kts | 308° |
| 2026-05-05 12:45 | 51.99077 | -0.65866 | 1335 ft | 106 kts | 306° |
| 2026-05-05 12:46 | 51.99489 | -0.66855 | 1229 ft | 106 kts | 308° |
| 2026-05-05 12:46 | 51.99918 | -0.67825 | 1128 ft | 104 kts | 307° |
| 2026-05-05 12:46 | 52.00347 | -0.68756 | 1093 ft | 103 kts | 309° |
| 2026-05-05 12:46 | 52.00778 | -0.69687 | 1086 ft | 103 kts | 308° |
| 2026-05-05 12:47 | 52.01208 | -0.70632 | 1029 ft | 105 kts | 309° |
| 2026-05-05 12:47 | 52.01643 | -0.71580 | 1004 ft | 104 kts | 307° |
| 2026-05-05 12:47 | 52.02077 | -0.72509 | 981 ft | 102 kts | 309° |
| 2026-05-05 12:47 | 52.02591 | -0.73349 | 859 ft | 108 kts | 317° |
| 2026-05-05 12:48 | 52.03139 | -0.74190 | 832 ft | 108 kts | 317° |
| 2026-05-05 12:48 | 52.03664 | -0.74995 | 947 ft | 100 kts | 317° |
| 2026-05-05 12:48 | 52.04172 | -0.75762 | 1017 ft | 100 kts | 318° |
| 2026-05-05 12:48 | 52.04691 | -0.76568 | 1036 ft | 103 kts | 317° |
| 2026-05-05 12:49 | 52.05209 | -0.77389 | 1057 ft | 105 kts | 317° |
| 2026-05-05 12:49 | 52.05728 | -0.78209 | 1092 ft | 104 kts | 317° |
| 2026-05-05 12:49 | 52.06239 | -0.79031 | 1163 ft | 103 kts | 317° |
| 2026-05-05 12:49 | 52.06756 | -0.79877 | 1217 ft | 102 kts | 317° |
| 2026-05-05 12:50 | 52.07242 | -0.80667 | 1229 ft | 102 kts | 317° |
| 2026-05-05 12:50 | 52.07749 | -0.81483 | 1241 ft | 102 kts | 317° |
| 2026-05-05 12:50 | 52.08251 | -0.82300 | 1257 ft | 102 kts | 315° |
| 2026-05-05 12:50 | 52.08749 | -0.83122 | 1253 ft | 102 kts | 317° |
| 2026-05-05 12:51 | 52.09250 | -0.83929 | 1260 ft | 101 kts | 319° |
| 2026-05-05 12:51 | 52.09764 | -0.84710 | 1318 ft | 101 kts | 318° |
| 2026-05-05 12:51 | 52.10265 | -0.85502 | 1448 ft | 100 kts | 317° |
| 2026-05-05 12:51 | 52.10751 | -0.86330 | 1536 ft | 102 kts | 317° |
| 2026-05-05 12:52 | 52.11256 | -0.87178 | 1485 ft | 109 kts | 317° |
| 2026-05-05 12:52 | 52.11770 | -0.88088 | 1519 ft | 107 kts | 315° |
| 2026-05-05 12:52 | 52.12271 | -0.88946 | 1600 ft | 102 kts | 318° |
| 2026-05-05 12:52 | 52.12753 | -0.89783 | 1732 ft | 102 kts | 315° |
| 2026-05-05 12:53 | 52.13076 | -0.90339 | 1809 ft | 103 kts | 317° |
| 2026-05-05 12:53 | 52.13740 | -0.91506 | 1770 ft | 112 kts | 318° |
| 2026-05-05 12:53 | 52.14273 | -0.92411 | 1727 ft | 107 kts | 318° |
| 2026-05-05 12:53 | 52.14762 | -0.93264 | 1821 ft | 101 kts | 317° |
| 2026-05-05 12:54 | 52.15710 | -0.94898 | 1996 ft | 99 kts | 317° |
| 2026-05-05 12:54 | 52.16197 | -0.95728 | 2020 ft | 104 kts | 317° |
| 2026-05-05 12:54 | 52.16693 | -0.96569 | 2016 ft | 104 kts | 316° |
| 2026-05-05 12:55 | 52.17192 | -0.97417 | 2030 ft | 102 kts | 319° |
| 2026-05-05 12:55 | 52.17680 | -0.98246 | 2069 ft | 101 kts | 317° |
| 2026-05-05 12:55 | 52.18160 | -0.99087 | 2088 ft | 101 kts | 316° |
| 2026-05-05 12:55 | 52.18650 | -0.99922 | 2070 ft | 107 kts | 318° |
| 2026-05-05 12:56 | 52.19181 | -1.00816 | 2028 ft | 107 kts | 317° |
| 2026-05-05 12:56 | 52.19676 | -1.01662 | 2106 ft | 101 kts | 317° |
| 2026-05-05 12:56 | 52.20153 | -1.02475 | 2152 ft | 98 kts | 316° |
| 2026-05-05 12:56 | 52.20637 | -1.03304 | 2127 ft | 106 kts | 317° |
| 2026-05-05 12:57 | 52.21196 | -1.04257 | 1804 ft | 117 kts | 317° |
| 2026-05-05 12:57 | 52.21723 | -1.05164 | 1872 ft | 103 kts | 317° |
| 2026-05-05 12:57 | 52.22193 | -1.05992 | 1997 ft | 98 kts | 316° |
| 2026-05-05 12:57 | 52.22656 | -1.06817 | 2011 ft | 100 kts | 316° |
| 2026-05-05 12:58 | 52.23132 | -1.07660 | 2004 ft | 102 kts | 316° |
| 2026-05-05 12:58 | 52.23456 | -1.08232 | 1985 ft | 101 kts | 316° |
| 2026-05-05 12:58 | 52.23932 | -1.09068 | 1983 ft | 100 kts | 317° |
| 2026-05-05 12:58 | 52.24403 | -1.09889 | 1999 ft | 99 kts | 316° |
| 2026-05-05 12:59 | 52.24802 | -1.10781 | 2122 ft | 97 kts | 292° |
| 2026-05-05 12:59 | 52.24923 | -1.11953 | 1970 ft | 114 kts | 282° |
| 2026-05-05 12:59 | 52.25014 | -1.13241 | 1962 ft | 112 kts | 280° |
| 2026-05-05 13:00 | 52.25161 | -1.15634 | 1988 ft | 104 kts | 283° |
| 2026-05-05 13:00 | 52.25243 | -1.16804 | 1957 ft | 104 kts | 281° |
| 2026-05-05 13:01 | 52.25482 | -1.20415 | 1862 ft | 107 kts | 281° |
| 2026-05-05 13:01 | 52.25613 | -1.21618 | 1820 ft | 109 kts | 284° |
| 2026-05-05 13:01 | 52.25712 | -1.22842 | 1813 ft | 109 kts | 281° |
| 2026-05-05 13:01 | 52.25792 | -1.24081 | 1844 ft | 108 kts | 281° |
| 2026-05-05 13:02 | 52.25873 | -1.25277 | 1912 ft | 105 kts | 281° |
| 2026-05-05 13:02 | 52.25964 | -1.26471 | 1945 ft | 107 kts | 281° |
| 2026-05-05 13:02 | 52.26050 | -1.27667 | 1941 ft | 105 kts | 282° |
| 2026-05-05 13:02 | 52.26118 | -1.28849 | 1933 ft | 105 kts | 282° |
| 2026-05-05 13:03 | 52.26178 | -1.30044 | 1944 ft | 106 kts | 281° |
| 2026-05-05 13:03 | 52.26263 | -1.31238 | 1916 ft | 106 kts | 282° |
| 2026-05-05 13:03 | 52.26353 | -1.32434 | 1856 ft | 106 kts | 282° |
| 2026-05-05 13:03 | 52.26447 | -1.33624 | 1829 ft | 105 kts | 281° |
| 2026-05-05 13:04 | 52.26535 | -1.34801 | 1853 ft | 104 kts | 280° |
| 2026-05-05 13:04 | 52.26619 | -1.35973 | 1909 ft | 105 kts | 279° |
| 2026-05-05 13:04 | 52.26704 | -1.37172 | 1954 ft | 107 kts | 281° |
| 2026-05-05 13:04 | 52.26787 | -1.38363 | 1977 ft | 105 kts | 281° |
| 2026-05-05 13:05 | 52.26883 | -1.39545 | 2007 ft | 107 kts | 283° |
| 2026-05-05 13:05 | 52.26974 | -1.40756 | 2036 ft | 107 kts | 281° |
| 2026-05-05 13:05 | 52.27061 | -1.41954 | 2047 ft | 106 kts | 282° |
| 2026-05-05 13:05 | 52.27140 | -1.43151 | 2061 ft | 106 kts | 280° |
| 2026-05-05 13:06 | 52.27222 | -1.44337 | 2045 ft | 104 kts | 280° |
| 2026-05-05 13:06 | 52.27309 | -1.45502 | 2063 ft | 103 kts | 282° |
| 2026-05-05 13:06 | 52.27390 | -1.46673 | 2038 ft | 104 kts | 281° |
| 2026-05-05 13:06 | 52.27476 | -1.47859 | 2061 ft | 106 kts | 283° |
| 2026-05-05 13:07 | 52.27564 | -1.49054 | 2093 ft | 107 kts | 282° |
| 2026-05-05 13:07 | 52.27635 | -1.50264 | 2086 ft | 107 kts | 282° |
| 2026-05-05 13:07 | 52.27715 | -1.51480 | 2100 ft | 107 kts | 281° |
| 2026-05-05 13:07 | 52.27792 | -1.52688 | 2104 ft | 106 kts | 282° |
| 2026-05-05 13:08 | 52.27857 | -1.53860 | 2141 ft | 101 kts | 283° |
| 2026-05-05 13:08 | 52.27967 | -1.54939 | 2351 ft | 92 kts | 289° |
| 2026-05-05 13:08 | 52.28242 | -1.55899 | 2378 ft | 92 kts | 317° |
| 2026-05-05 13:08 | 52.28728 | -1.56565 | 2387 ft | 94 kts | 328° |
| 2026-05-05 13:09 | 52.29249 | -1.57218 | 2396 ft | 91 kts | 326° |
| 2026-05-05 13:09 | 52.29737 | -1.57838 | 2416 ft | 91 kts | 326° |
| 2026-05-05 13:09 | 52.30277 | -1.58478 | 2434 ft | 101 kts | 328° |
| 2026-05-05 13:09 | 52.30866 | -1.59156 | 2399 ft | 104 kts | 328° |
| 2026-05-05 13:10 | 52.31448 | -1.59824 | 2444 ft | 100 kts | 328° |
| 2026-05-05 13:10 | 52.32006 | -1.60458 | 2515 ft | 97 kts | 328° |
| 2026-05-05 13:10 | 52.32569 | -1.61095 | 2514 ft | 98 kts | 329° |
| 2026-05-05 13:10 | 52.33139 | -1.61732 | 2559 ft | 100 kts | 328° |
| 2026-05-05 13:11 | 52.33719 | -1.62374 | 2544 ft | 104 kts | 328° |
| 2026-05-05 13:11 | 52.34310 | -1.63049 | 2575 ft | 100 kts | 328° |
| 2026-05-05 13:11 | 52.34875 | -1.63709 | 2616 ft | 99 kts | 328° |
| 2026-05-05 13:11 | 52.35463 | -1.64376 | 2537 ft | 107 kts | 327° |
| 2026-05-05 13:12 | 52.36070 | -1.65058 | 2486 ft | 102 kts | 328° |
| 2026-05-05 13:12 | 52.36628 | -1.65727 | 2544 ft | 95 kts | 327° |
| 2026-05-05 13:12 | 52.37126 | -1.66321 | 2636 ft | 83 kts | 328° |
| 2026-05-05 13:12 | 52.37615 | -1.66905 | 2476 ft | 94 kts | 328° |
| 2026-05-05 13:13 | 52.38165 | -1.67573 | 2260 ft | 98 kts | 327° |
| 2026-05-05 13:13 | 52.38716 | -1.68227 | 2159 ft | 98 kts | 328° |
| 2026-05-05 13:13 | 52.39289 | -1.68827 | 2038 ft | 98 kts | 332° |
| 2026-05-05 13:13 | 52.39833 | -1.69385 | 2003 ft | 85 kts | 332° |
| 2026-05-05 13:14 | 52.40315 | -1.69910 | 1837 ft | 85 kts | 331° |
| 2026-05-05 13:14 | 52.40808 | -1.70434 | 1738 ft | 81 kts | 333° |
| 2026-05-05 13:14 | 52.41279 | -1.70864 | 1634 ft | 76 kts | 333° |
| 2026-05-05 13:14 | 52.41737 | -1.71299 | 1502 ft | 76 kts | 334° |
| 2026-05-05 13:15 | 52.42237 | -1.71756 | 1224 ft | 86 kts | 333° |
| 2026-05-05 13:15 | 52.42806 | -1.72284 | 1065 ft | 100 kts | 332° |
| 2026-05-05 13:15 | 52.43420 | -1.72860 | 927 ft | 100 kts | 331° |
| 2026-05-05 13:15 | 52.44041 | -1.73434 | 662 ft | 103 kts | 329° |
| 2026-05-05 13:16 | 52.44587 | -1.74012 | 492 ft | 85 kts | 314° |
| 2026-05-05 13:16 | 52.45058 | -1.74468 | 361 ft | 71 kts | 311° |
| 2026-05-05 13:16 | 52.45415 | -1.74871 | 332 ft | 50 kts | 324° |
| 2026-05-05 13:16 | 52.45662 | -1.75130 | 317 ft | 36 kts | 322° |
| 2026-05-05 13:17 | 52.45855 | -1.75325 | 314 ft | 30 kts | 331° |
| 2026-05-05 13:17 | 52.46015 | -1.75509 | 310 ft | 27 kts | 328° |
| 2026-05-05 13:17 | 52.46168 | -1.75564 | 309 ft | 22 kts | 58° |
| 2026-05-05 13:17 | 52.46180 | -1.75349 | 310 ft | 21 kts | 148° |
| 2026-05-05 13:18 | 52.46063 | -1.75216 | 311 ft | 21 kts | 142° |
| 2026-05-05 13:18 | 52.45939 | -1.75081 | 313 ft | 22 kts | 150° |
| 2026-05-05 13:18 | 52.45806 | -1.74937 | 315 ft | 23 kts | 147° |
| 2026-05-05 13:18 | 52.45662 | -1.74788 | 317 ft | 27 kts | 148° |
| 2026-05-05 13:19 | 52.45523 | -1.74584 | 319 ft | 26 kts | 108° |
| 2026-05-05 13:19 | 52.45478 | -1.74293 | 321 ft | 26 kts | 114° |
| 2026-05-05 13:19 | 52.45438 | -1.74150 | 322 ft | 0 kts | 153° |